createdAt,value
2022-11-10T00:00:23.411Z,12.38
2022-11-10T00:01:23.393Z,12.42
2022-11-10T00:02:23.377Z,12.31
2022-11-10T00:03:23.656Z,12.30
2022-11-10T00:04:23.400Z,12.34
2022-11-10T00:05:23.356Z,12.38
2022-11-10T00:06:23.328Z,12.27
2022-11-10T00:07:23.315Z,12.33
2022-11-10T00:08:23.302Z,12.27
2022-11-10T00:09:23.291Z,12.23
2022-11-10T00:10:23.327Z,12.30
2022-11-10T00:11:23.293Z,12.38
2022-11-10T00:12:23.260Z,12.24
2022-11-10T00:13:23.625Z,12.33
2022-11-10T00:14:23.235Z,12.29
2022-11-10T00:15:23.228Z,12.34
2022-11-10T00:16:23.227Z,12.26
2022-11-10T00:17:23.203Z,12.26
2022-11-10T00:18:23.206Z,12.26
2022-11-10T00:19:23.181Z,12.20
2022-11-10T00:20:23.179Z,12.21
2022-11-10T00:21:23.185Z,12.12
2022-11-10T00:22:26.011Z,12.21
2022-11-10T00:23:23.504Z,12.26
2022-11-10T00:24:23.127Z,12.15
2022-11-10T00:25:23.127Z,12.23
2022-11-10T00:26:23.111Z,12.15
2022-11-10T00:27:23.118Z,12.19
2022-11-10T00:28:23.085Z,12.19
2022-11-10T00:29:23.069Z,12.09
2022-11-10T00:30:23.056Z,12.16
2022-11-10T00:31:23.068Z,12.06
2022-11-10T00:32:23.031Z,12.09
2022-11-10T00:33:23.364Z,12.15
2022-11-10T00:34:23.011Z,12.13
2022-11-10T00:35:23.019Z,12.02
2022-11-10T00:36:23.020Z,12.08
2022-11-10T00:37:22.985Z,12.08
2022-11-10T00:38:22.972Z,12.05
2022-11-10T00:39:22.957Z,12.12
2022-11-10T00:40:22.946Z,12.05
2022-11-10T00:41:22.936Z,11.96
2022-11-10T00:42:22.935Z,11.97
2022-11-10T00:43:26.583Z,12.01
2022-11-10T00:44:22.908Z,11.97
2022-11-10T00:45:22.894Z,11.96
2022-11-10T00:46:22.888Z,11.94
2022-11-10T00:47:22.882Z,12.04
2022-11-10T00:48:22.862Z,12.05
2022-11-10T00:49:22.849Z,12.02
2022-11-10T00:50:22.839Z,11.93
2022-11-10T00:51:22.829Z,12.01
2022-11-10T00:52:22.832Z,11.93
2022-11-10T00:53:23.278Z,12.08
2022-11-10T00:54:22.785Z,12.02
2022-11-10T00:55:22.777Z,11.97
2022-11-10T00:56:22.765Z,11.97
2022-11-10T00:57:22.767Z,12.08
2022-11-10T00:58:22.749Z,12.02
2022-11-10T00:59:22.758Z,11.93
2022-11-10T01:00:22.736Z,11.93
2022-11-10T01:01:22.726Z,12.04
2022-11-10T01:02:22.718Z,11.85
2022-11-10T01:03:23.234Z,11.85
2022-11-10T01:04:22.674Z,11.89
2022-11-10T01:05:22.671Z,11.87
2022-11-10T01:06:22.659Z,11.77
2022-11-10T01:07:22.661Z,11.86
2022-11-10T01:08:22.631Z,11.83
2022-11-10T01:09:22.632Z,11.87
2022-11-10T01:10:22.607Z,11.83
2022-11-10T01:11:22.604Z,11.89
2022-11-10T01:12:22.608Z,11.96
2022-11-10T01:13:22.895Z,11.89
2022-11-10T01:14:22.566Z,11.96
2022-11-10T01:15:27.311Z,12.04
2022-11-10T01:16:23.540Z,11.99
2022-11-10T01:17:22.551Z,11.89
2022-11-10T01:18:22.517Z,11.89
2022-11-10T01:19:22.506Z,11.90
2022-11-10T01:20:22.501Z,11.86
2022-11-10T01:21:22.481Z,11.90
2022-11-10T01:22:22.499Z,11.80
2022-11-10T01:23:22.933Z,11.86
2022-11-10T01:24:22.450Z,11.87
2022-11-10T01:25:22.438Z,11.87
2022-11-10T01:26:22.426Z,11.87
2022-11-10T01:27:22.431Z,11.86
2022-11-10T01:28:22.402Z,11.97
2022-11-10T01:29:22.397Z,11.90
2022-11-10T01:30:22.388Z,11.97
2022-11-10T01:31:22.395Z,11.82
2022-11-10T01:32:22.379Z,11.90
2022-11-10T01:33:22.615Z,11.90
2022-11-10T01:34:22.342Z,11.96
2022-11-10T01:35:22.332Z,11.90
2022-11-10T01:36:22.320Z,12.06
2022-11-10T01:37:22.317Z,11.97
2022-11-10T01:38:22.298Z,11.96
2022-11-10T01:39:22.286Z,11.89
2022-11-10T01:40:22.386Z,12.04
2022-11-10T01:41:22.264Z,11.90
2022-11-10T01:42:22.276Z,11.94
2022-11-10T01:43:22.673Z,11.97
2022-11-10T01:44:22.235Z,11.93
2022-11-10T01:45:22.220Z,11.85
2022-11-10T01:46:22.198Z,11.83
2022-11-10T01:47:22.231Z,11.85
2022-11-10T01:48:22.186Z,11.85
2022-11-10T01:49:22.203Z,11.82
2022-11-10T01:50:22.159Z,11.85
2022-11-10T01:51:22.147Z,11.82
2022-11-10T01:52:22.154Z,11.64
2022-11-10T01:53:22.440Z,11.70
2022-11-10T01:54:22.116Z,11.64
2022-11-10T01:55:22.099Z,11.75
2022-11-10T01:56:22.094Z,11.77
2022-11-10T01:57:22.107Z,11.62
2022-11-10T01:58:22.067Z,11.62
2022-11-10T01:59:22.063Z,11.67
2022-11-10T02:00:22.050Z,11.72
2022-11-10T02:01:22.082Z,11.72
2022-11-10T02:02:22.046Z,11.64
2022-11-10T02:03:22.481Z,11.70
2022-11-10T02:04:21.998Z,11.56
2022-11-10T02:05:21.993Z,11.56
2022-11-10T02:06:21.974Z,11.56
2022-11-10T02:07:21.982Z,11.47
2022-11-10T02:08:21.960Z,11.47
2022-11-10T02:09:21.949Z,11.35
2022-11-10T02:10:21.932Z,11.35
2022-11-10T02:11:21.924Z,11.31
2022-11-10T02:12:21.923Z,11.27
2022-11-10T02:13:22.222Z,11.24
2022-11-10T02:14:21.892Z,11.20
2022-11-10T02:15:21.881Z,11.06
2022-11-10T02:16:21.869Z,11.19
2022-11-10T02:17:21.963Z,10.98
2022-11-10T02:18:21.840Z,11.13
2022-11-10T02:19:21.858Z,10.99
2022-11-10T02:20:21.825Z,10.98
2022-11-10T02:21:21.812Z,10.92
2022-11-10T02:22:21.816Z,10.94
2022-11-10T02:23:22.105Z,10.78
2022-11-10T02:24:21.777Z,10.78
2022-11-10T02:25:21.758Z,10.80
2022-11-10T02:26:21.755Z,10.80
2022-11-10T02:27:21.758Z,10.76
2022-11-10T02:28:21.735Z,10.68
2022-11-10T02:29:21.731Z,10.77
2022-11-10T02:30:26.508Z,10.59
2022-11-10T02:31:22.698Z,10.63
2022-11-10T02:32:21.704Z,10.63
2022-11-10T02:33:22.073Z,10.63
2022-11-10T02:34:21.675Z,10.53
2022-11-10T02:35:21.669Z,10.52
2022-11-10T02:36:21.634Z,10.52
2022-11-10T02:37:21.633Z,10.56
2022-11-10T02:38:21.633Z,10.43
2022-11-10T02:39:21.603Z,10.36
2022-11-10T02:40:21.598Z,10.39
2022-11-10T02:41:21.581Z,10.40
2022-11-10T02:42:21.568Z,10.28
2022-11-10T02:43:21.942Z,10.26
2022-11-10T02:44:21.555Z,10.22
2022-11-10T02:45:21.544Z,10.26
2022-11-10T02:46:21.523Z,10.24
2022-11-10T02:47:21.518Z,10.22
2022-11-10T02:48:21.536Z,10.14
2022-11-10T02:49:21.493Z,10.18
2022-11-10T02:50:21.485Z,10.12
2022-11-10T02:51:21.497Z,10.22
2022-11-10T02:52:21.459Z,10.06
2022-11-10T02:53:21.855Z,10.06
2022-11-10T02:54:21.438Z,10.07
2022-11-10T02:55:21.431Z,10.00
2022-11-10T02:56:21.411Z,9.97
2022-11-10T02:57:21.408Z,10.07
2022-11-10T02:58:21.402Z,9.96
2022-11-10T02:59:21.385Z,9.96
2022-11-10T03:00:21.374Z,9.83
2022-11-10T03:01:21.417Z,9.86
2022-11-10T03:02:21.354Z,9.82
2022-11-10T03:03:21.773Z,9.97
2022-11-10T03:04:21.321Z,9.88
2022-11-10T03:05:21.326Z,9.83
2022-11-10T03:06:21.308Z,9.85
2022-11-10T03:07:21.308Z,9.93
2022-11-10T03:08:21.315Z,9.93
2022-11-10T03:09:21.270Z,9.93
2022-11-10T03:10:21.253Z,9.89
2022-11-10T03:11:21.276Z,9.96
2022-11-10T03:12:21.239Z,9.96
2022-11-10T03:13:21.568Z,9.89
2022-11-10T03:14:21.241Z,9.86
2022-11-10T03:15:21.194Z,9.91
2022-11-10T03:16:21.184Z,10.00
2022-11-10T03:17:21.191Z,9.93
2022-11-10T03:18:21.189Z,9.89
2022-11-10T03:19:21.165Z,9.86
2022-11-10T03:20:21.149Z,9.86
2022-11-10T03:21:21.129Z,9.86
2022-11-10T03:22:21.125Z,9.82
2022-11-10T03:23:21.614Z,9.76
2022-11-10T03:24:21.117Z,9.75
2022-11-10T03:25:21.102Z,9.83
2022-11-10T03:26:21.082Z,9.85
2022-11-10T03:27:21.067Z,9.76
2022-11-10T03:28:21.054Z,9.88
2022-11-10T03:29:21.050Z,9.86
2022-11-10T03:30:21.034Z,9.81
2022-11-10T03:31:21.016Z,9.96
2022-11-10T03:32:21.002Z,9.99
2022-11-10T03:33:21.437Z,9.88
2022-11-10T03:34:21.016Z,9.86
2022-11-10T03:35:20.972Z,9.96
2022-11-10T03:36:20.986Z,9.86
2022-11-10T03:37:20.947Z,9.96
2022-11-10T03:38:20.948Z,9.81
2022-11-10T03:39:20.945Z,9.97
2022-11-10T03:40:20.933Z,9.97
2022-11-10T03:41:21.149Z,9.85
2022-11-10T03:42:20.901Z,9.89
2022-11-10T03:43:21.251Z,9.96
2022-11-10T03:44:20.870Z,9.85
2022-11-10T03:45:20.884Z,9.81
2022-11-10T03:46:20.854Z,9.88
2022-11-10T03:47:20.852Z,9.93
2022-11-10T03:48:20.846Z,9.89
2022-11-10T03:49:20.821Z,9.83
2022-11-10T03:50:20.826Z,9.86
2022-11-10T03:51:20.800Z,9.96
2022-11-10T03:52:20.785Z,9.85
2022-11-10T03:53:21.081Z,9.83
2022-11-10T03:54:20.762Z,9.86
2022-11-10T03:55:20.781Z,9.93
2022-11-10T03:56:20.742Z,9.82
2022-11-10T03:57:20.723Z,9.83
2022-11-10T03:58:20.720Z,9.81
2022-11-10T03:59:20.705Z,9.76
2022-11-10T04:00:20.707Z,9.76
2022-11-10T04:01:20.738Z,9.76
2022-11-10T04:02:20.674Z,9.71
2022-11-10T04:03:21.163Z,9.83
2022-11-10T04:04:20.657Z,9.71
2022-11-10T04:05:20.669Z,9.75
2022-11-10T04:06:20.628Z,9.75
2022-11-10T04:07:20.613Z,9.85
2022-11-10T04:08:20.618Z,9.85
2022-11-10T04:09:20.590Z,9.76
2022-11-10T04:10:20.597Z,9.71
2022-11-10T04:11:20.594Z,9.76
2022-11-10T04:12:24.591Z,9.83
2022-11-10T04:13:20.845Z,9.76
2022-11-10T04:14:20.538Z,9.71
2022-11-10T04:15:20.531Z,9.78
2022-11-10T04:16:20.517Z,9.81
2022-11-10T04:17:20.508Z,9.81
2022-11-10T04:18:20.493Z,9.85
2022-11-10T04:19:20.477Z,10.04
2022-11-10T04:20:20.479Z,9.96
2022-11-10T04:21:20.459Z,9.83
2022-11-10T04:22:20.448Z,9.97
2022-11-10T04:23:20.888Z,9.82
2022-11-10T04:24:20.423Z,9.88
2022-11-10T04:25:20.431Z,9.97
2022-11-10T04:26:20.405Z,9.85
2022-11-10T04:27:20.407Z,9.89
2022-11-10T04:28:20.385Z,9.88
2022-11-10T04:29:20.363Z,9.97
2022-11-10T04:30:20.382Z,9.85
2022-11-10T04:31:20.345Z,9.85
2022-11-10T04:32:20.339Z,9.93
2022-11-10T04:33:20.691Z,9.85
2022-11-10T04:34:20.314Z,9.85
2022-11-10T04:35:20.313Z,9.85
2022-11-10T04:36:20.291Z,9.68
2022-11-10T04:37:20.272Z,9.79
2022-11-10T04:38:20.270Z,9.76
2022-11-10T04:39:20.253Z,9.81
2022-11-10T04:40:20.260Z,9.82
2022-11-10T04:41:20.236Z,9.86
2022-11-10T04:42:20.218Z,9.78
2022-11-10T04:43:20.695Z,9.81
2022-11-10T04:44:20.209Z,9.75
2022-11-10T04:45:20.197Z,9.82
2022-11-10T04:46:20.180Z,9.75
2022-11-10T04:47:20.168Z,9.85
2022-11-10T04:48:20.155Z,9.81
2022-11-10T04:49:20.150Z,9.88
2022-11-10T04:50:20.152Z,9.94
2022-11-10T04:51:20.191Z,9.96
2022-11-10T04:52:20.106Z,9.93
2022-11-10T04:53:20.458Z,9.99
2022-11-10T04:54:20.097Z,9.88
2022-11-10T04:55:20.089Z,9.83
2022-11-10T04:56:20.068Z,9.94
2022-11-10T04:57:20.050Z,9.83
2022-11-10T04:58:20.045Z,9.83
2022-11-10T04:59:20.047Z,9.82
2022-11-10T05:00:20.048Z,9.83
2022-11-10T05:01:20.066Z,10.01
2022-11-10T05:02:19.995Z,10.00
2022-11-10T05:03:20.471Z,9.99
2022-11-10T05:04:19.980Z,9.91
2022-11-10T05:05:19.976Z,9.99
2022-11-10T05:06:19.955Z,9.99
2022-11-10T05:07:19.941Z,9.97
2022-11-10T05:08:19.928Z,9.97
2022-11-10T05:09:19.942Z,9.97
2022-11-10T05:10:19.940Z,9.96
2022-11-10T05:11:19.924Z,9.83
2022-11-10T05:12:22.480Z,9.89
2022-11-10T05:13:20.179Z,9.83
2022-11-10T05:14:19.863Z,9.89
2022-11-10T05:15:19.893Z,9.94
2022-11-10T05:16:19.838Z,9.85
2022-11-10T05:17:19.834Z,9.91
2022-11-10T05:18:19.817Z,9.91
2022-11-10T05:19:19.812Z,9.97
2022-11-10T05:20:19.824Z,9.82
2022-11-10T05:21:19.783Z,9.85
2022-11-10T05:22:19.777Z,9.75
2022-11-10T05:23:19.953Z,9.70
2022-11-10T05:24:19.749Z,9.68
2022-11-10T05:25:19.751Z,9.79
2022-11-10T05:26:19.743Z,9.75
2022-11-10T05:27:19.729Z,9.75
2022-11-10T05:28:19.714Z,9.71
2022-11-10T05:29:19.700Z,9.79
2022-11-10T05:30:19.702Z,9.81
2022-11-10T05:31:19.693Z,9.76
2022-11-10T05:32:19.658Z,9.78
2022-11-10T05:33:20.115Z,9.79
2022-11-10T05:34:19.735Z,9.86
2022-11-10T05:35:19.647Z,9.76
2022-11-10T05:36:19.619Z,9.83
2022-11-10T05:37:19.598Z,9.82
2022-11-10T05:38:19.611Z,9.86
2022-11-10T05:39:19.588Z,9.83
2022-11-10T05:40:19.588Z,9.97
2022-11-10T05:41:19.557Z,10.00
2022-11-10T05:42:19.589Z,9.94
2022-11-10T05:43:19.621Z,9.89
2022-11-10T05:44:19.522Z,10.01
2022-11-10T05:45:19.523Z,9.93
2022-11-10T05:46:19.509Z,9.96
2022-11-10T05:47:19.507Z,10.04
2022-11-10T05:48:19.480Z,9.93
2022-11-10T05:49:19.474Z,10.03
2022-11-10T05:50:19.476Z,9.88
2022-11-10T05:51:19.446Z,9.97
2022-11-10T05:52:19.433Z,9.93
2022-11-10T05:53:19.863Z,10.03
2022-11-10T05:54:19.410Z,10.03
2022-11-10T05:55:19.437Z,9.94
2022-11-10T05:56:19.390Z,10.01
2022-11-10T05:57:19.374Z,10.01
2022-11-10T05:58:19.364Z,10.09
2022-11-10T05:59:19.362Z,9.94
2022-11-10T06:00:19.359Z,10.03
2022-11-10T06:01:19.336Z,9.99
2022-11-10T06:02:19.330Z,9.96
2022-11-10T06:03:19.694Z,9.96
2022-11-10T06:04:19.300Z,10.01
2022-11-10T06:05:19.287Z,10.01
2022-11-10T06:06:19.294Z,10.07
2022-11-10T06:07:19.262Z,9.96
2022-11-10T06:08:19.257Z,10.00
2022-11-10T06:09:19.249Z,10.03
2022-11-10T06:10:19.235Z,9.96
2022-11-10T06:11:19.243Z,10.09
2022-11-10T06:12:19.213Z,10.06
2022-11-10T06:13:19.467Z,10.00
2022-11-10T06:14:19.215Z,9.97
2022-11-10T06:15:19.196Z,9.94
2022-11-10T06:16:19.172Z,10.03
2022-11-10T06:17:19.221Z,10.04
2022-11-10T06:18:19.178Z,9.93
2022-11-10T06:19:19.153Z,9.99
2022-11-10T06:20:19.151Z,9.96
2022-11-10T06:21:19.124Z,9.99
2022-11-10T06:22:19.096Z,9.89
2022-11-10T06:23:19.229Z,10.01
2022-11-10T06:24:19.069Z,9.96
2022-11-10T06:25:19.087Z,9.93
2022-11-10T06:26:19.064Z,10.03
2022-11-10T06:27:19.042Z,9.94
2022-11-10T06:28:19.055Z,9.97
2022-11-10T06:29:24.115Z,9.97
2022-11-10T06:30:20.003Z,9.88
2022-11-10T06:31:19.028Z,9.86
2022-11-10T06:32:19.520Z,9.93
2022-11-10T06:33:19.209Z,9.82
2022-11-10T06:34:18.963Z,9.79
2022-11-10T06:35:18.976Z,9.82
2022-11-10T06:36:18.973Z,9.70
2022-11-10T06:37:18.939Z,9.63
2022-11-10T06:38:18.917Z,9.61
2022-11-10T06:39:18.914Z,9.64
2022-11-10T06:40:18.898Z,9.64
2022-11-10T06:41:22.697Z,9.53
2022-11-10T06:42:19.881Z,9.56
2022-11-10T06:43:18.930Z,9.57
2022-11-10T06:44:18.845Z,9.50
2022-11-10T06:45:18.840Z,9.68
2022-11-10T06:46:18.819Z,9.61
2022-11-10T06:47:18.832Z,9.50
2022-11-10T06:48:18.816Z,9.60
2022-11-10T06:49:18.785Z,9.61
2022-11-10T06:50:18.782Z,9.52
2022-11-10T06:51:18.786Z,9.57
2022-11-10T06:52:18.773Z,9.53
2022-11-10T06:53:22.913Z,9.39
2022-11-10T06:54:19.729Z,9.40
2022-11-10T06:55:18.733Z,9.40
2022-11-10T06:56:18.714Z,9.32
2022-11-10T06:57:18.733Z,9.32
2022-11-10T06:58:18.687Z,9.30
2022-11-10T06:59:18.691Z,9.39
2022-11-10T07:00:18.665Z,9.52
2022-11-10T07:01:22.283Z,9.49
2022-11-10T07:02:18.657Z,9.52
2022-11-10T07:03:18.676Z,9.50
2022-11-10T07:04:20.324Z,9.52
2022-11-10T07:05:18.653Z,9.52
2022-11-10T07:06:18.597Z,9.66
2022-11-10T07:07:18.622Z,9.75
2022-11-10T07:08:18.573Z,9.70
2022-11-10T07:09:18.576Z,9.71
2022-11-10T07:10:18.565Z,9.76
2022-11-10T07:11:18.560Z,9.75
2022-11-10T07:12:18.569Z,10.00
2022-11-10T07:13:18.531Z,9.91
2022-11-10T07:14:18.528Z,9.96
2022-11-10T07:15:18.496Z,10.01
2022-11-10T07:16:24.169Z,10.06
2022-11-10T07:17:19.488Z,10.09
2022-11-10T07:18:18.502Z,10.21
2022-11-10T07:19:18.459Z,10.21
2022-11-10T07:20:18.453Z,10.22
2022-11-10T07:21:18.477Z,10.36
2022-11-10T07:22:18.440Z,10.46
2022-11-10T07:23:18.441Z,10.42
2022-11-10T07:24:18.403Z,10.53
2022-11-10T07:25:18.406Z,10.47
2022-11-10T07:26:18.391Z,10.63
2022-11-10T07:27:18.401Z,10.70
2022-11-10T07:28:18.368Z,10.63
2022-11-10T07:29:18.347Z,10.71
2022-11-10T07:30:18.340Z,10.77
2022-11-10T07:31:18.325Z,10.83
2022-11-10T07:32:18.332Z,10.88
2022-11-10T07:33:18.304Z,10.96
2022-11-10T07:34:18.325Z,11.03
2022-11-10T07:35:18.272Z,11.03
2022-11-10T07:36:18.262Z,11.07
2022-11-10T07:37:18.278Z,11.11
2022-11-10T07:38:18.256Z,11.11
2022-11-10T07:39:18.249Z,11.13
2022-11-10T07:40:18.235Z,11.19
2022-11-10T07:41:18.213Z,11.03
2022-11-10T07:42:18.203Z,11.03
2022-11-10T07:43:18.184Z,11.07
2022-11-10T07:44:18.170Z,11.03
2022-11-10T07:45:18.166Z,10.95
2022-11-10T07:46:18.151Z,10.96
2022-11-10T07:47:18.155Z,10.98
2022-11-10T07:48:18.130Z,10.96
2022-11-10T07:49:18.121Z,11.06
2022-11-10T07:50:18.119Z,10.98
2022-11-10T07:51:18.101Z,11.03
2022-11-10T07:52:18.103Z,11.06
2022-11-10T07:53:18.068Z,11.24
2022-11-10T07:54:18.056Z,11.14
2022-11-10T07:55:18.070Z,11.17
2022-11-10T07:56:18.033Z,11.31
2022-11-10T07:57:18.056Z,11.24
2022-11-10T07:58:18.044Z,11.19
2022-11-10T07:59:18.009Z,11.19
2022-11-10T08:00:17.997Z,11.29
2022-11-10T08:01:18.043Z,11.28
2022-11-10T08:02:17.982Z,11.27
2022-11-10T08:03:17.966Z,11.21
2022-11-10T08:04:17.944Z,11.35
2022-11-10T08:05:17.984Z,11.41
2022-11-10T08:06:17.977Z,11.34
2022-11-10T08:07:18.123Z,11.36
2022-11-10T08:08:17.910Z,11.32
2022-11-10T08:09:17.896Z,11.36
2022-11-10T08:10:17.895Z,11.34
2022-11-10T08:11:17.891Z,11.41
2022-11-10T08:12:17.874Z,11.47
2022-11-10T08:13:17.847Z,11.47
2022-11-10T08:14:17.833Z,11.52
2022-11-10T08:15:17.833Z,11.49
2022-11-10T08:16:17.827Z,11.59
2022-11-10T08:17:17.831Z,11.54
2022-11-10T08:18:17.797Z,11.57
2022-11-10T08:19:17.784Z,11.61
2022-11-10T08:20:17.766Z,11.65
2022-11-10T08:21:17.761Z,11.64
2022-11-10T08:22:17.763Z,11.71
2022-11-10T08:23:17.738Z,11.65
2022-11-10T08:24:17.719Z,11.82
2022-11-10T08:25:17.707Z,11.74
2022-11-10T08:26:17.698Z,11.74
2022-11-10T08:27:17.739Z,11.78
2022-11-10T08:28:17.690Z,11.85
2022-11-10T08:29:17.663Z,11.75
2022-11-10T08:30:17.667Z,11.80
2022-11-10T08:31:17.645Z,11.83
2022-11-10T08:32:17.658Z,11.90
2022-11-10T08:33:17.628Z,11.86
2022-11-10T08:34:17.608Z,11.96
2022-11-10T08:35:17.596Z,11.99
2022-11-10T08:36:17.606Z,12.06
2022-11-10T08:37:17.580Z,12.09
2022-11-10T08:38:17.580Z,12.09
2022-11-10T08:39:36.273Z,12.05
2022-11-10T08:40:18.546Z,12.12
2022-11-10T08:41:17.529Z,12.09
2022-11-10T08:42:17.522Z,12.19
2022-11-10T08:43:17.542Z,12.26
2022-11-10T08:44:20.678Z,12.23
2022-11-10T08:45:17.482Z,12.38
2022-11-10T08:46:17.474Z,12.33
2022-11-10T08:47:17.459Z,12.34
2022-11-10T08:48:17.471Z,12.37
2022-11-10T08:49:17.443Z,12.30
2022-11-10T08:50:17.441Z,12.44
2022-11-10T08:51:17.561Z,12.46
2022-11-10T08:52:17.487Z,12.51
2022-11-10T08:53:17.410Z,12.54
2022-11-10T08:54:17.438Z,12.42
2022-11-10T08:55:17.383Z,12.57
2022-11-10T08:56:17.369Z,12.66
2022-11-10T08:57:17.401Z,12.70
2022-11-10T08:58:17.361Z,12.64
2022-11-10T08:59:17.347Z,12.64
2022-11-10T09:00:17.310Z,12.66
2022-11-10T09:01:17.303Z,12.69
2022-11-10T09:02:17.293Z,12.84
2022-11-10T09:03:17.293Z,12.70
2022-11-10T09:04:17.304Z,12.75
2022-11-10T09:05:17.253Z,12.97
2022-11-10T09:06:17.250Z,12.93
2022-11-10T09:07:17.286Z,12.95
2022-11-10T09:08:17.251Z,12.79
2022-11-10T09:09:17.211Z,12.92
2022-11-10T09:10:17.218Z,12.85
2022-11-10T09:11:17.198Z,13.00
2022-11-10T09:12:17.175Z,12.99
2022-11-10T09:13:17.232Z,13.04
2022-11-10T09:14:17.158Z,13.07
2022-11-10T09:15:17.188Z,13.11
2022-11-10T09:16:17.139Z,13.15
2022-11-10T09:17:17.128Z,13.12
2022-11-10T09:18:17.130Z,13.24
2022-11-10T09:19:20.070Z,13.27
2022-11-10T09:20:17.098Z,13.25
2022-11-10T09:21:17.096Z,13.36
2022-11-10T09:22:17.071Z,13.36
2022-11-10T09:23:17.079Z,13.55
2022-11-10T09:24:17.043Z,13.55
2022-11-10T09:25:17.041Z,13.56
2022-11-10T09:26:17.023Z,13.62
2022-11-10T09:27:17.028Z,13.71
2022-11-10T09:28:17.029Z,13.89
2022-11-10T09:29:17.028Z,13.80
2022-11-10T09:30:18.100Z,13.91
2022-11-10T09:31:16.983Z,14.06
2022-11-10T09:32:16.966Z,14.16
2022-11-10T09:33:16.962Z,14.10
2022-11-10T09:34:16.939Z,14.27
2022-11-10T09:35:16.946Z,14.29
2022-11-10T09:36:16.922Z,14.20
2022-11-10T09:37:16.902Z,14.37
2022-11-10T09:38:16.899Z,14.34
2022-11-10T09:39:16.892Z,14.42
2022-11-10T09:40:16.874Z,14.27
2022-11-10T09:41:16.855Z,14.46
2022-11-10T09:42:16.838Z,14.50
2022-11-10T09:43:16.852Z,14.61
2022-11-10T09:44:16.819Z,14.68
2022-11-10T09:45:16.807Z,14.84
2022-11-10T09:46:16.797Z,14.94
2022-11-10T09:47:42.471Z,14.94
2022-11-10T09:48:17.797Z,15.02
2022-11-10T09:49:16.767Z,15.08
2022-11-10T09:50:16.761Z,15.09
2022-11-10T09:51:16.748Z,15.13
2022-11-10T09:52:16.725Z,15.33
2022-11-10T09:53:16.749Z,15.30
2022-11-10T09:54:16.724Z,15.39
2022-11-10T09:55:16.701Z,15.52
2022-11-10T09:56:16.692Z,15.56
2022-11-10T09:57:16.670Z,15.54
2022-11-10T09:58:16.681Z,15.70
2022-11-10T09:59:16.647Z,15.84
2022-11-10T10:00:16.640Z,15.94
2022-11-10T10:01:16.812Z,16.06
2022-11-10T10:02:16.622Z,16.20
2022-11-10T10:03:16.663Z,16.34
2022-11-10T10:04:16.600Z,16.45
2022-11-10T10:05:16.652Z,16.62
2022-11-10T10:06:16.579Z,16.63
2022-11-10T10:07:16.671Z,16.71
2022-11-10T10:08:16.564Z,16.60
2022-11-10T10:09:16.557Z,16.62
2022-11-10T10:10:17.715Z,16.65
2022-11-10T10:11:16.537Z,16.80
2022-11-10T10:12:16.517Z,16.92
2022-11-10T10:13:16.498Z,17.08
2022-11-10T10:14:16.504Z,17.20
2022-11-10T10:15:16.476Z,17.15
2022-11-10T10:16:16.488Z,17.11
2022-11-10T10:17:16.462Z,16.99
2022-11-10T10:18:16.436Z,16.86
2022-11-10T10:19:16.555Z,16.86
2022-11-10T10:20:16.410Z,16.95
2022-11-10T10:21:16.399Z,16.99
2022-11-10T10:22:16.397Z,17.13
2022-11-10T10:23:16.378Z,17.04
2022-11-10T10:24:21.414Z,17.22
2022-11-10T10:25:17.364Z,17.10
2022-11-10T10:26:16.355Z,17.26
2022-11-10T10:27:16.335Z,17.36
2022-11-10T10:28:16.320Z,17.32
2022-11-10T10:29:16.322Z,17.30
2022-11-10T10:30:16.304Z,17.26
2022-11-10T10:31:16.351Z,17.20
2022-11-10T10:32:16.291Z,17.26
2022-11-10T10:33:16.281Z,17.43
2022-11-10T10:34:16.280Z,17.48
2022-11-10T10:35:16.268Z,17.62
2022-11-10T10:36:16.242Z,17.73
2022-11-10T10:37:16.256Z,17.59
2022-11-10T10:38:16.212Z,17.74
2022-11-10T10:39:16.215Z,17.67
2022-11-10T10:40:16.199Z,17.51
2022-11-10T10:41:20.974Z,17.43
2022-11-10T10:42:17.169Z,17.43
2022-11-10T10:43:16.164Z,17.43
2022-11-10T10:44:16.162Z,17.54
2022-11-10T10:45:16.178Z,17.63
2022-11-10T10:46:16.127Z,17.66
2022-11-10T10:47:16.134Z,17.76
2022-11-10T10:48:16.097Z,17.74
2022-11-10T10:49:31.702Z,17.84
2022-11-10T10:50:17.081Z,17.76
2022-11-10T10:51:16.102Z,17.43
2022-11-10T10:52:16.060Z,17.48
2022-11-10T10:53:16.042Z,17.50
2022-11-10T10:54:16.134Z,17.64
2022-11-10T10:55:16.024Z,17.67
2022-11-10T10:56:16.042Z,17.91
2022-11-10T10:57:16.001Z,17.82
2022-11-10T10:58:16.003Z,18.03
2022-11-10T10:59:15.987Z,18.00
2022-11-10T11:00:15.976Z,18.25
2022-11-10T11:01:16.119Z,18.49
2022-11-10T11:02:15.946Z,18.58
2022-11-10T11:03:15.940Z,18.83
2022-11-10T11:04:15.936Z,18.80
2022-11-10T11:05:15.906Z,18.70
2022-11-10T11:06:15.903Z,18.72
2022-11-10T11:07:15.982Z,18.68
2022-11-10T11:08:15.876Z,18.59
2022-11-10T11:09:15.888Z,18.58
2022-11-10T11:10:15.885Z,18.58
2022-11-10T11:11:15.840Z,18.52
2022-11-10T11:12:15.836Z,18.25
2022-11-10T11:13:15.824Z,18.03
2022-11-10T11:14:15.822Z,17.88
2022-11-10T11:15:15.803Z,18.02
2022-11-10T11:16:15.794Z,18.09
2022-11-10T11:17:15.823Z,18.12
2022-11-10T11:18:15.773Z,18.10
2022-11-10T11:19:15.779Z,18.25
2022-11-10T11:20:15.846Z,18.17
2022-11-10T11:21:15.738Z,18.17
2022-11-10T11:22:15.727Z,18.03
2022-11-10T11:23:15.736Z,17.97
2022-11-10T11:24:15.726Z,17.97
2022-11-10T11:25:15.685Z,18.00
2022-11-10T11:26:15.688Z,18.12
2022-11-10T11:27:15.689Z,18.12
2022-11-10T11:28:15.668Z,18.15
2022-11-10T11:29:15.653Z,18.12
2022-11-10T11:30:15.749Z,18.10
2022-11-10T11:31:15.676Z,18.07
2022-11-10T11:32:15.626Z,18.03
2022-11-10T11:33:15.605Z,18.19
2022-11-10T11:34:15.606Z,18.24
2022-11-10T11:35:15.582Z,18.34
2022-11-10T11:36:15.570Z,18.33
2022-11-10T11:37:19.411Z,18.29
2022-11-10T11:38:15.540Z,18.25
2022-11-10T11:39:15.565Z,18.25
2022-11-10T11:40:15.608Z,18.43
2022-11-10T11:41:15.504Z,18.46
2022-11-10T11:42:15.506Z,18.50
2022-11-10T11:43:15.496Z,18.33
2022-11-10T11:44:15.495Z,18.43
2022-11-10T11:45:15.466Z,18.34
2022-11-10T11:46:15.464Z,18.39
2022-11-10T11:47:15.444Z,18.34
2022-11-10T11:48:15.458Z,18.34
2022-11-10T11:49:15.437Z,18.44
2022-11-10T11:50:15.485Z,18.72
2022-11-10T11:51:15.396Z,18.76
2022-11-10T11:52:15.395Z,18.76
2022-11-10T11:53:15.369Z,18.94
2022-11-10T11:54:15.373Z,18.91
2022-11-10T11:55:15.376Z,19.02
2022-11-10T11:56:15.345Z,18.98
2022-11-10T11:57:15.326Z,19.08
2022-11-10T11:58:15.323Z,19.11
2022-11-10T11:59:15.326Z,18.92
2022-11-10T12:00:15.310Z,18.91
2022-11-10T12:01:15.311Z,18.98
2022-11-10T12:02:15.342Z,19.10
2022-11-10T12:03:15.271Z,19.14
2022-11-10T12:04:15.266Z,19.01
2022-11-10T12:05:15.245Z,18.83
2022-11-10T12:06:15.252Z,18.90
2022-11-10T12:07:15.321Z,19.05
2022-11-10T12:08:15.202Z,19.08
2022-11-10T12:09:15.213Z,19.11
2022-11-10T12:10:15.191Z,19.28
2022-11-10T12:11:15.191Z,19.29
2022-11-10T12:12:15.200Z,19.33
2022-11-10T12:13:15.150Z,19.36
2022-11-10T12:14:15.166Z,19.53
2022-11-10T12:15:15.127Z,19.69
2022-11-10T12:16:15.124Z,19.63
2022-11-10T12:17:15.108Z,19.57
2022-11-10T12:18:15.091Z,19.63
2022-11-10T12:19:15.104Z,19.47
2022-11-10T12:20:15.075Z,19.48
2022-11-10T12:21:15.056Z,19.33
2022-11-10T12:22:15.055Z,19.55
2022-11-10T12:23:15.042Z,19.66
2022-11-10T12:24:15.035Z,19.66
2022-11-10T12:25:15.023Z,19.75
2022-11-10T12:26:15.029Z,19.79
2022-11-10T12:27:15.010Z,19.88
2022-11-10T12:28:15.004Z,19.83
2022-11-10T12:29:15.010Z,19.86
2022-11-10T12:30:14.959Z,19.91
2022-11-10T12:31:14.954Z,19.83
2022-11-10T12:32:14.944Z,19.83
2022-11-10T12:33:14.930Z,19.75
2022-11-10T12:34:14.931Z,19.69
2022-11-10T12:35:14.898Z,19.68
2022-11-10T12:36:14.894Z,19.68
2022-11-10T12:37:14.906Z,19.68
2022-11-10T12:38:14.895Z,19.72
2022-11-10T12:39:14.878Z,19.86
2022-11-10T12:40:14.878Z,19.80
2022-11-10T12:41:14.838Z,19.86
2022-11-10T12:42:14.824Z,19.58
2022-11-10T12:43:14.828Z,19.47
2022-11-10T12:44:14.826Z,19.65
2022-11-10T12:45:14.789Z,19.65
2022-11-10T12:46:14.793Z,19.72
2022-11-10T12:47:14.774Z,19.65
2022-11-10T12:48:14.766Z,19.80
2022-11-10T12:49:14.756Z,19.88
2022-11-10T12:50:14.734Z,20.06
2022-11-10T12:51:14.737Z,20.13
2022-11-10T12:52:14.717Z,20.30
2022-11-10T12:53:14.703Z,20.30
2022-11-10T12:54:16.839Z,20.16
2022-11-10T12:55:14.687Z,20.25
2022-11-10T12:56:14.675Z,20.27
2022-11-10T12:57:14.664Z,20.38
2022-11-10T12:58:14.652Z,20.30
2022-11-10T12:59:14.677Z,20.09
2022-11-10T13:00:19.313Z,20.08